createdAt,value
2023-04-16T00:02:04.942Z,100.00
2023-04-16T00:05:07.014Z,100.00
2023-04-16T00:08:08.662Z,100.00
2023-04-16T00:11:10.533Z,100.00
2023-04-16T00:14:12.141Z,100.00
2023-04-16T00:17:13.742Z,100.00
2023-04-16T00:20:15.528Z,100.00
2023-04-16T00:23:17.497Z,100.00
2023-04-16T00:26:19.107Z,100.00
2023-04-16T00:29:20.889Z,100.00
2023-04-16T00:32:22.553Z,100.00
2023-04-16T00:35:24.308Z,100.00
2023-04-16T00:38:30.015Z,100.00
2023-04-16T00:41:31.819Z,100.00
2023-04-16T00:44:36.086Z,100.00
2023-04-16T00:47:38.646Z,100.00
2023-04-16T00:50:40.433Z,100.00
2023-04-16T00:53:42.652Z,100.00
2023-04-16T00:56:44.797Z,100.00
2023-04-16T00:59:46.664Z,100.00
2023-04-16T01:02:48.491Z,100.00
2023-04-16T01:05:51.248Z,100.00
2023-04-16T01:08:52.937Z,100.00
2023-04-16T01:11:54.590Z,100.00
2023-04-16T01:14:56.649Z,100.00
2023-04-16T01:17:58.324Z,100.00
2023-04-16T01:21:00.425Z,100.00
2023-04-16T01:24:05.434Z,100.00
2023-04-16T01:27:07.131Z,100.00
2023-04-16T01:30:09.050Z,100.00
2023-04-16T01:33:11.711Z,100.00
2023-04-16T01:36:13.414Z,100.00
2023-04-16T01:39:16.493Z,100.00
2023-04-16T01:42:18.251Z,100.00
2023-04-16T01:45:19.868Z,100.00
2023-04-16T01:48:21.541Z,100.00
2023-04-16T01:51:23.522Z,100.00
2023-04-16T01:54:26.120Z,100.00
2023-04-16T01:57:27.722Z,100.00
2023-04-16T02:00:29.465Z,100.00
2023-04-16T02:03:31.729Z,100.00
2023-04-16T02:06:33.513Z,100.00
2023-04-16T02:09:39.630Z,100.00
2023-04-16T02:12:41.263Z,100.00
2023-04-16T02:15:50.060Z,100.00
2023-04-16T02:18:51.801Z,100.00
2023-04-16T02:21:54.156Z,100.00
2023-04-16T02:24:55.864Z,100.00
2023-04-16T02:27:57.689Z,100.00
2023-04-16T02:30:59.831Z,100.00
2023-04-16T02:34:01.716Z,100.00
2023-04-16T02:37:03.384Z,100.00
2023-04-16T02:40:05.321Z,100.00
2023-04-16T02:43:07.017Z,100.00
2023-04-16T02:46:08.838Z,100.00
2023-04-16T02:49:10.837Z,100.00
2023-04-16T02:52:14.375Z,100.00
2023-04-16T02:55:17.416Z,100.00
2023-04-16T02:58:20.059Z,100.00
2023-04-16T03:01:21.739Z,100.00
2023-04-16T03:04:23.540Z,100.00
2023-04-16T03:07:25.294Z,100.00
2023-04-16T03:10:27.028Z,100.00
2023-04-16T03:13:28.849Z,100.00
2023-04-16T03:16:30.518Z,100.00
2023-04-16T03:19:32.182Z,100.00
2023-04-16T03:22:33.846Z,100.00
2023-04-16T03:25:35.591Z,100.00
2023-04-16T03:28:37.243Z,100.00
2023-04-16T03:31:39.084Z,100.00
2023-04-16T03:34:40.932Z,100.00
2023-04-16T03:37:42.588Z,100.00
2023-04-16T03:40:44.194Z,100.00
2023-04-16T03:43:45.967Z,100.00
2023-04-16T03:46:47.657Z,100.00
2023-04-16T03:49:49.287Z,100.00
2023-04-16T03:52:51.038Z,100.00
2023-04-16T03:55:52.930Z,100.00
2023-04-16T03:58:54.606Z,100.00
2023-04-16T04:01:56.332Z,100.00
2023-04-16T04:04:58.150Z,100.00
2023-04-16T04:07:59.916Z,100.00
2023-04-16T04:11:01.526Z,100.00
2023-04-16T04:14:03.164Z,100.00
2023-04-16T04:17:04.807Z,100.00
2023-04-16T04:20:07.097Z,100.00
2023-04-16T04:23:08.692Z,100.00
2023-04-16T04:26:10.433Z,100.00
2023-04-16T04:29:12.220Z,100.00
2023-04-16T04:32:14.048Z,100.00
2023-04-16T04:35:15.711Z,100.00
2023-04-16T04:38:22.197Z,100.00
2023-04-16T04:41:24.139Z,100.00
2023-04-16T04:44:25.857Z,100.00
2023-04-16T04:47:27.513Z,100.00
2023-04-16T04:50:29.351Z,100.00
2023-04-16T04:53:30.975Z,100.00
2023-04-16T04:56:32.574Z,100.00
2023-04-16T04:59:34.228Z,100.00
2023-04-16T05:02:36.115Z,100.00
2023-04-16T05:05:39.493Z,100.00
2023-04-16T05:08:41.139Z,100.00
2023-04-16T05:11:42.935Z,100.00
2023-04-16T05:14:44.587Z,100.00
2023-04-16T05:17:46.490Z,100.00
2023-04-16T05:20:48.193Z,100.00
2023-04-16T05:23:49.806Z,100.00
2023-04-16T05:26:51.420Z,100.00
2023-04-16T05:29:53.225Z,100.00
2023-04-16T05:32:54.867Z,100.00
2023-04-16T05:35:56.541Z,100.00
2023-04-16T05:38:58.193Z,100.00
2023-04-16T05:41:59.800Z,100.00
2023-04-16T05:45:04.302Z,100.00
2023-04-16T05:48:07.324Z,100.00
2023-04-16T05:51:08.995Z,100.00
2023-04-16T05:54:10.650Z,100.00
2023-04-16T05:57:13.935Z,100.00
2023-04-16T06:00:15.799Z,100.00
2023-04-16T06:03:17.520Z,100.00
2023-04-16T06:06:19.247Z,100.00
2023-04-16T06:09:20.903Z,100.00
2023-04-16T06:12:22.550Z,100.00
2023-04-16T06:15:24.163Z,100.00
2023-04-16T06:18:25.808Z,100.00
2023-04-16T06:21:28.435Z,100.00
2023-04-16T06:24:30.122Z,100.00
2023-04-16T06:27:32.086Z,100.00
2023-04-16T06:30:33.843Z,100.00
2023-04-16T06:33:35.604Z,100.00
2023-04-16T06:36:37.754Z,100.00
2023-04-16T06:39:39.424Z,99.70
2023-04-16T06:42:42.291Z,97.78
2023-04-16T06:45:45.386Z,96.65
2023-04-16T06:48:47.179Z,94.58
2023-04-16T06:51:48.839Z,95.79
2023-04-16T06:54:50.485Z,93.19
2023-04-16T06:57:52.093Z,93.17
2023-04-16T07:00:53.830Z,92.68
2023-04-16T07:03:55.690Z,91.41
2023-04-16T07:06:57.493Z,91.96
2023-04-16T07:09:59.404Z,93.94
2023-04-16T07:13:01.722Z,95.61
2023-04-16T07:16:03.457Z,94.08
2023-04-16T07:19:05.173Z,92.19
2023-04-16T07:22:06.885Z,92.15
2023-04-16T07:25:08.929Z,94.25
2023-04-16T07:28:10.578Z,89.57
2023-04-16T07:31:12.389Z,90.43
2023-04-16T07:34:14.026Z,90.84
2023-04-16T07:37:15.643Z,85.37
2023-04-16T07:40:17.341Z,81.61
2023-04-16T07:43:18.948Z,76.84
2023-04-16T07:46:21.175Z,76.01
2023-04-16T07:49:22.862Z,73.15
2023-04-16T07:52:24.533Z,66.06
2023-04-16T07:55:26.374Z,57.93
2023-04-16T07:58:27.992Z,52.38
2023-04-16T08:01:29.781Z,52.96
2023-04-16T08:04:31.719Z,47.33
2023-04-16T08:07:34.574Z,51.98
2023-04-16T08:10:36.568Z,46.69
2023-04-16T08:13:38.245Z,46.30
2023-04-16T08:16:40.625Z,44.08
2023-04-16T08:19:45.106Z,49.40
2023-04-16T08:22:46.879Z,51.57
2023-04-16T08:25:48.530Z,52.80
2023-04-16T08:28:50.157Z,52.88
2023-04-16T08:31:52.948Z,68.37
2023-04-16T08:34:54.800Z,65.16
2023-04-16T08:37:57.953Z,71.70
2023-04-16T08:41:03.323Z,71.59
2023-04-16T08:44:08.783Z,73.41
2023-04-16T08:47:12.646Z,77.88
2023-04-16T08:50:22.384Z,83.60
2023-04-16T08:53:32.764Z,87.07
2023-04-16T08:56:37.442Z,91.57
2023-04-16T08:59:40.267Z,93.75
2023-04-16T09:02:43.017Z,99.90
2023-04-16T09:05:45.065Z,100.00
2023-04-16T09:08:48.155Z,100.00
2023-04-16T09:11:52.401Z,99.63
2023-04-16T09:14:54.161Z,97.06
2023-04-16T09:17:57.644Z,94.53
2023-04-16T09:20:59.762Z,96.46
2023-04-16T09:24:02.074Z,98.06
2023-04-16T09:27:04.150Z,96.72
2023-04-16T09:30:26.175Z,94.87
2023-04-16T09:33:27.828Z,90.45
2023-04-16T09:36:31.380Z,89.31
2023-04-16T09:39:33.027Z,86.35
2023-04-16T09:42:37.260Z,86.20
2023-04-16T09:45:52.900Z,86.91
2023-04-16T09:48:54.565Z,88.03
2023-04-16T09:51:57.210Z,87.91
2023-04-16T09:55:00.043Z,86.81
2023-04-16T09:58:02.496Z,83.25
2023-04-16T10:01:10.128Z,82.86
2023-04-16T10:04:11.874Z,78.81
2023-04-16T10:07:13.545Z,75.50
2023-04-16T10:10:15.639Z,76.53
2023-04-16T10:13:19.214Z,75.00
2023-04-16T10:16:22.403Z,73.34
2023-04-16T10:19:25.570Z,73.78
2023-04-16T10:22:27.201Z,73.59
2023-04-16T10:25:29.130Z,71.52
2023-04-16T10:28:31.127Z,68.45
2023-04-16T10:31:33.124Z,65.80
2023-04-16T10:34:36.552Z,62.92
2023-04-16T10:37:41.016Z,60.75
2023-04-16T10:40:45.042Z,59.15
2023-04-16T10:43:48.446Z,57.74
2023-04-16T10:46:50.341Z,60.33
2023-04-16T10:49:52.079Z,61.01
2023-04-16T10:53:20.780Z,60.90
2023-04-16T10:56:27.068Z,62.94
2023-04-16T10:59:33.457Z,60.33
2023-04-16T11:02:35.402Z,60.95
2023-04-16T11:05:49.569Z,61.92
2023-04-16T11:08:55.030Z,63.06
2023-04-16T11:11:57.435Z,61.65
2023-04-16T11:15:01.451Z,62.50
2023-04-16T11:18:04.182Z,63.52
2023-04-16T11:21:10.671Z,64.24
2023-04-16T11:24:12.567Z,64.39
2023-04-16T11:27:16.130Z,64.04
2023-04-16T11:30:19.441Z,65.18
2023-04-16T11:33:21.334Z,64.42
2023-04-16T11:36:24.234Z,61.73
2023-04-16T11:39:27.234Z,62.47
2023-04-16T11:42:29.490Z,61.88
2023-04-16T11:45:31.285Z,62.34
2023-04-16T11:48:53.803Z,61.68
2023-04-16T11:51:56.228Z,62.88
2023-04-16T11:54:59.624Z,61.56
2023-04-16T11:58:12.473Z,59.70
2023-04-16T12:01:21.481Z,58.75
2023-04-16T12:04:27.340Z,58.42
2023-04-16T12:07:29.121Z,55.67
2023-04-16T12:10:32.367Z,52.82
2023-04-16T12:13:39.942Z,52.87
2023-04-16T12:16:41.879Z,50.02
2023-04-16T12:19:57.925Z,49.48
2023-04-16T12:23:01.458Z,46.75
2023-04-16T12:26:12.779Z,47.62
2023-04-16T12:29:15.323Z,48.44
2023-04-16T12:32:23.550Z,47.07
2023-04-16T12:35:32.663Z,46.11
2023-04-16T12:38:34.304Z,46.58
2023-04-16T12:41:37.333Z,47.09
2023-04-16T12:44:38.962Z,46.29
2023-04-16T12:47:40.940Z,45.94
2023-04-16T12:50:44.362Z,44.61
2023-04-16T12:53:46.280Z,44.20
2023-04-16T12:56:48.068Z,43.53
2023-04-16T12:59:49.814Z,43.79
2023-04-16T13:02:51.700Z,44.05
2023-04-16T13:05:54.068Z,43.02
2023-04-16T13:08:56.532Z,44.48
2023-04-16T13:11:58.298Z,42.88
2023-04-16T13:14:59.924Z,44.57
2023-04-16T13:18:01.845Z,47.28
2023-04-16T13:21:03.779Z,44.28
2023-04-16T13:24:05.979Z,43.74
2023-04-16T13:27:08.528Z,41.71
2023-04-16T13:30:11.112Z,40.30
2023-04-16T13:33:12.920Z,41.06
2023-04-16T13:36:14.698Z,42.03
2023-04-16T13:39:16.559Z,40.84
2023-04-16T13:42:18.534Z,40.64
2023-04-16T13:45:20.731Z,39.57
2023-04-16T13:48:22.554Z,37.24
2023-04-16T13:51:24.383Z,38.03
2023-04-16T13:54:26.583Z,38.93
2023-04-16T13:57:28.819Z,37.84
2023-04-16T14:00:30.472Z,38.88
2023-04-16T14:03:36.380Z,39.79
2023-04-16T14:06:38.144Z,38.23
2023-04-16T14:09:40.269Z,39.63
2023-04-16T14:12:42.973Z,39.76
2023-04-16T14:15:44.602Z,40.04
2023-04-16T14:18:46.592Z,40.55
2023-04-16T14:21:48.331Z,41.10
2023-04-16T14:24:50.347Z,41.53
2023-04-16T14:27:52.407Z,41.52
2023-04-16T14:30:54.078Z,41.25
2023-04-16T14:33:55.826Z,41.90
2023-04-16T14:36:58.250Z,41.35
2023-04-16T14:40:00.901Z,43.57
2023-04-16T14:43:02.506Z,43.58
2023-04-16T14:46:06.583Z,44.44
2023-04-16T14:49:11.983Z,44.88
2023-04-16T14:52:14.232Z,44.87
2023-04-16T14:55:15.877Z,45.51
2023-04-16T14:58:17.760Z,45.42
2023-04-16T15:01:19.533Z,45.24
2023-04-16T15:04:21.634Z,45.65
2023-04-16T15:07:24.082Z,44.79
2023-04-16T15:10:26.296Z,46.98
2023-04-16T15:13:33.843Z,48.12
2023-04-16T15:16:36.009Z,46.50
2023-04-16T15:19:37.966Z,46.43
2023-04-16T15:22:40.271Z,47.93
2023-04-16T15:25:41.977Z,49.15
2023-04-16T15:28:44.189Z,49.67
2023-04-16T15:31:47.512Z,49.85
2023-04-16T15:34:51.136Z,48.98
2023-04-16T15:37:55.386Z,49.00
2023-04-16T15:41:00.577Z,48.46
2023-04-16T15:44:03.439Z,48.61
2023-04-16T15:47:08.276Z,48.44
2023-04-16T15:50:11.989Z,48.65
2023-04-16T15:53:14.514Z,48.75
2023-04-16T15:56:17.439Z,49.37
2023-04-16T15:59:19.473Z,47.59
2023-04-16T16:02:21.678Z,48.68
2023-04-16T16:05:23.950Z,48.99
2023-04-16T16:08:25.686Z,48.58
2023-04-16T16:11:28.553Z,49.60
2023-04-16T16:14:30.765Z,50.23
2023-04-16T16:17:35.767Z,49.52
2023-04-16T16:20:38.214Z,50.00
2023-04-16T16:23:40.351Z,49.56
2023-04-16T16:26:43.048Z,48.41
2023-04-16T16:29:45.362Z,48.42
2023-04-16T16:32:47.750Z,49.54
2023-04-16T16:35:50.672Z,50.27
2023-04-16T16:38:52.683Z,52.55
2023-04-16T16:41:54.650Z,54.47
2023-04-16T16:44:57.553Z,55.34
2023-04-16T16:48:00.077Z,56.93
2023-04-16T16:51:11.523Z,57.51
2023-04-16T16:54:13.719Z,57.46
2023-04-16T16:57:16.179Z,56.87
2023-04-16T17:00:20.275Z,56.86
2023-04-16T17:03:22.339Z,57.10
2023-04-16T17:06:24.798Z,57.22
2023-04-16T17:09:26.966Z,58.60
2023-04-16T17:12:29.228Z,59.64
2023-04-16T17:15:31.695Z,61.02
2023-04-16T17:18:34.531Z,59.98
2023-04-16T17:21:37.017Z,59.04
2023-04-16T17:24:39.639Z,59.30
2023-04-16T17:27:42.536Z,59.52
2023-04-16T17:30:45.522Z,59.69
2023-04-16T17:33:47.820Z,61.57
2023-04-16T17:36:51.146Z,62.39
2023-04-16T17:39:54.355Z,60.39
2023-04-16T17:42:57.401Z,60.86
2023-04-16T17:45:59.851Z,60.80
2023-04-16T17:49:02.542Z,61.81
2023-04-16T17:52:04.324Z,62.39
2023-04-16T17:55:07.174Z,61.13
2023-04-16T17:58:10.153Z,63.05
2023-04-16T18:01:13.467Z,61.47
2023-04-16T18:04:16.278Z,61.46
2023-04-16T18:07:19.885Z,60.51
2023-04-16T18:10:22.665Z,60.42
2023-04-16T18:13:25.489Z,60.24
2023-04-16T18:16:29.443Z,60.48
2023-04-16T18:19:32.445Z,60.01
2023-04-16T18:22:34.662Z,60.62
2023-04-16T18:25:36.482Z,60.44
2023-04-16T18:28:38.671Z,61.00
2023-04-16T18:31:41.055Z,61.13
2023-04-16T18:34:44.981Z,62.03
2023-04-16T18:37:47.577Z,62.27
2023-04-16T18:40:50.915Z,61.94
2023-04-16T18:43:55.609Z,61.06
2023-04-16T18:46:58.670Z,61.47
2023-04-16T18:50:02.046Z,61.98
2023-04-16T18:53:07.543Z,62.31
2023-04-16T18:56:11.424Z,62.39
2023-04-16T18:59:14.346Z,63.35
2023-04-16T19:02:17.505Z,64.19
2023-04-16T19:05:21.640Z,65.22
2023-04-16T19:08:24.790Z,66.55
2023-04-16T19:11:30.533Z,68.37
2023-04-16T19:14:33.319Z,69.88
2023-04-16T19:17:35.666Z,70.06
2023-04-16T19:20:38.058Z,69.49
2023-04-16T19:23:39.966Z,69.94
2023-04-16T19:26:42.440Z,71.19
2023-04-16T19:29:47.345Z,72.21
2023-04-16T19:32:49.918Z,74.21
2023-04-16T19:35:52.735Z,75.20
2023-04-16T19:38:56.623Z,75.73
2023-04-16T19:41:59.848Z,76.15
2023-04-16T19:45:04.050Z,76.70
2023-04-16T19:48:06.882Z,77.81
2023-04-16T19:51:09.204Z,78.87
2023-04-16T19:54:12.076Z,79.27
2023-04-16T19:57:14.888Z,80.07
2023-04-16T20:00:18.810Z,81.01
2023-04-16T20:03:21.343Z,81.33
2023-04-16T20:06:24.579Z,81.64
2023-04-16T20:09:26.921Z,82.01
2023-04-16T20:12:28.950Z,81.62
2023-04-16T20:15:31.060Z,81.67
2023-04-16T20:18:33.866Z,82.37
2023-04-16T20:21:39.123Z,82.55
2023-04-16T20:24:47.727Z,82.75
2023-04-16T20:27:50.105Z,82.72
2023-04-16T20:30:52.300Z,82.82
2023-04-16T20:33:54.240Z,83.11
2023-04-16T20:36:56.136Z,83.19
2023-04-16T20:39:58.196Z,83.23
2023-04-16T20:43:00.282Z,84.04
2023-04-16T20:46:03.102Z,83.78
2023-04-16T20:49:06.373Z,84.24
2023-04-16T20:52:08.531Z,84.34
2023-04-16T20:55:10.536Z,84.25
2023-04-16T20:58:12.211Z,84.69
2023-04-16T21:01:13.919Z,84.47
2023-04-16T21:04:16.400Z,85.24
2023-04-16T21:07:18.081Z,85.07
2023-04-16T21:10:20.403Z,85.96
2023-04-16T21:13:22.233Z,85.97
2023-04-16T21:16:23.967Z,86.67
2023-04-16T21:19:25.856Z,86.26
2023-04-16T21:22:27.564Z,86.45
2023-04-16T21:25:29.848Z,86.67
2023-04-16T21:28:31.484Z,87.04
2023-04-16T21:31:33.279Z,87.10
2023-04-16T21:34:34.950Z,87.58
2023-04-16T21:37:37.071Z,86.93
2023-04-16T21:40:38.740Z,86.68
2023-04-16T21:43:40.416Z,85.85
2023-04-16T21:46:42.128Z,85.84
2023-04-16T21:49:44.296Z,85.36
2023-04-16T21:52:46.826Z,85.31
2023-04-16T21:55:48.436Z,85.74
2023-04-16T21:58:50.454Z,84.32
2023-04-16T22:01:52.183Z,84.14
2023-04-16T22:04:53.837Z,84.43
2023-04-16T22:07:55.795Z,84.08
2023-04-16T22:11:02.645Z,84.95
2023-04-16T22:14:08.281Z,84.03
2023-04-16T22:17:10.079Z,83.84
2023-04-16T22:20:12.780Z,84.00
2023-04-16T22:23:14.423Z,83.79
2023-04-16T22:26:16.177Z,84.02
2023-04-16T22:29:17.882Z,83.89
2023-04-16T22:32:19.677Z,84.32
2023-04-16T22:35:21.356Z,84.56
2023-04-16T22:38:23.012Z,84.92
2023-04-16T22:41:24.721Z,85.09
2023-04-16T22:44:26.402Z,85.32
2023-04-16T22:47:28.098Z,86.02
2023-04-16T22:50:31.363Z,85.90
2023-04-16T22:53:33.249Z,85.98
2023-04-16T22:56:34.935Z,85.77
2023-04-16T22:59:36.627Z,85.84
2023-04-16T23:02:38.361Z,85.80
2023-04-16T23:05:40.191Z,86.16
2023-04-16T23:08:41.871Z,85.83
2023-04-16T23:11:43.472Z,86.27
2023-04-16T23:14:46.125Z,86.48
2023-04-16T23:17:47.964Z,86.52
2023-04-16T23:20:53.836Z,87.08
2023-04-16T23:23:56.688Z,87.07
2023-04-16T23:26:58.585Z,87.14
2023-04-16T23:30:00.334Z,87.59
2023-04-16T23:33:03.013Z,87.39
2023-04-16T23:36:05.181Z,87.07
2023-04-16T23:39:06.826Z,87.33
2023-04-16T23:42:08.713Z,87.23
2023-04-16T23:45:10.507Z,87.25
2023-04-16T23:48:12.236Z,86.91
2023-04-16T23:51:13.949Z,86.84
2023-04-16T23:54:15.658Z,86.24
2023-04-16T23:57:17.312Z,86.71
